Terminal Aerodrome Forecast
Issued by NWS

Home | Current Version | Previous Version | Text Only | Print | Product List | Glossary On
Versions: 1 2 3 4 5 6 7 8 9 10 11 12 13 14
404
FTUS42 KTBW 260057 AAA
TAFPIE
TAF AMD
KPIE 260057Z 2601/2624 34007KT P6SM VCTS SCT040CB BKN150
      TEMPO 2601/2603 VRB15G25KT 2SM TSRA BKN028CB
     FM260300 10006KT P6SM SCT040 SCT120 BKN250
     FM260600 VRB03KT P6SM SKC
     FM261400 06006KT P6SM FEW025 FEW250
     FM261900 30007KT P6SM VCTS SCT040CB BKN250=

USA.gov is the U.S. government's official web portal to all federal, state and local government web resources and services.